createdAt,value
2022-09-09T00:01:33.944Z,1.20
2022-09-09T00:04:05.451Z,1.20
2022-09-09T00:06:56.777Z,1.40
2022-09-09T00:09:26.587Z,1.47
2022-09-09T00:11:57.901Z,1.37
2022-09-09T00:14:36.145Z,1.30
2022-09-09T00:17:08.098Z,1.20
2022-09-09T00:19:56.154Z,1.13
2022-09-09T00:22:27.539Z,1.30
2022-09-09T00:25:00.157Z,1.40
2022-09-09T00:27:30.982Z,1.13
2022-09-09T00:30:24.871Z,1.20
2022-09-09T00:32:59.272Z,1.50
2022-09-09T00:35:34.005Z,1.27
2022-09-09T00:38:12.165Z,1.10
2022-09-09T00:40:46.990Z,1.60
2022-09-09T00:43:26.643Z,1.30
2022-09-09T00:46:16.158Z,1.20
2022-09-09T00:48:52.009Z,1.63
2022-09-09T00:51:59.029Z,1.30
2022-09-09T00:54:50.132Z,1.30
2022-09-09T00:57:37.313Z,1.37
2022-09-09T01:00:19.725Z,1.37
2022-09-09T01:03:37.837Z,1.50
2022-09-09T01:06:13.787Z,1.40
2022-09-09T01:09:11.254Z,1.43
2022-09-09T01:11:56.656Z,1.00
2022-09-09T01:14:29.627Z,1.10
2022-09-09T01:16:58.400Z,1.70
2022-09-09T01:20:20.979Z,1.50
2022-09-09T01:23:00.885Z,1.30
2022-09-09T01:25:29.325Z,1.20
2022-09-09T01:28:19.127Z,1.13
2022-09-09T01:30:46.211Z,1.30
2022-09-09T01:33:18.018Z,1.37
2022-09-09T01:36:07.505Z,1.10
2022-09-09T01:38:40.906Z,1.40
2022-09-09T01:41:08.024Z,1.00
2022-09-09T01:43:58.065Z,1.03
2022-09-09T01:46:26.340Z,1.30
2022-09-09T01:48:54.788Z,1.30
2022-09-09T01:51:22.159Z,1.07
2022-09-09T01:53:50.256Z,1.20
2022-09-09T01:56:42.233Z,0.93
2022-09-09T01:59:25.290Z,1.43
2022-09-09T02:02:09.039Z,1.53
2022-09-09T02:04:45.255Z,1.30
2022-09-09T02:07:29.493Z,1.20
2022-09-09T02:10:12.403Z,1.57
2022-09-09T02:12:48.446Z,1.23
2022-09-09T02:15:21.578Z,1.30
2022-09-09T02:17:51.964Z,1.10
2022-09-09T02:20:20.545Z,1.30
2022-09-09T02:22:56.140Z,1.30
2022-09-09T02:25:25.721Z,1.40
2022-09-09T02:27:54.767Z,1.27
2022-09-09T02:30:21.989Z,1.30
2022-09-09T02:32:58.047Z,1.50
2022-09-09T02:35:38.642Z,1.43
2022-09-09T02:38:09.432Z,1.30
2022-09-09T02:40:37.026Z,2.00
2022-09-09T02:43:04.484Z,1.70
2022-09-09T02:45:43.256Z,1.07
2022-09-09T02:48:11.293Z,1.53
2022-09-09T02:51:11.018Z,1.90
2022-09-09T02:53:49.505Z,1.30
2022-09-09T02:56:19.843Z,1.30
2022-09-09T02:58:48.784Z,1.60
2022-09-09T03:01:15.631Z,1.10
2022-09-09T03:03:43.394Z,1.60
2022-09-09T03:06:14.065Z,1.13
2022-09-09T03:08:43.421Z,1.40
2022-09-09T03:11:18.212Z,1.30
2022-09-09T03:13:45.798Z,1.30
2022-09-09T03:16:13.071Z,1.63
2022-09-09T03:18:46.693Z,2.17
2022-09-09T03:21:13.529Z,1.30
2022-09-09T03:23:41.494Z,1.50
2022-09-09T03:26:08.845Z,1.50
2022-09-09T03:28:41.143Z,1.50
2022-09-09T03:31:11.420Z,1.43
2022-09-09T03:33:42.323Z,1.30
2022-09-09T03:36:12.394Z,1.43
2022-09-09T03:38:39.348Z,1.30
2022-09-09T03:41:07.104Z,1.37
2022-09-09T03:43:33.914Z,1.50
2022-09-09T03:46:01.128Z,1.10
2022-09-09T03:48:30.016Z,1.47
2022-09-09T03:50:58.934Z,1.90
2022-09-09T03:53:26.790Z,1.53
2022-09-09T03:55:55.706Z,1.07
2022-09-09T03:58:25.200Z,1.77
2022-09-09T04:01:01.876Z,1.93
2022-09-09T04:03:29.237Z,1.40
2022-09-09T04:05:58.142Z,1.50
2022-09-09T04:08:26.970Z,1.33
2022-09-09T04:10:59.139Z,1.50
2022-09-09T04:13:28.511Z,1.20
2022-09-09T04:15:58.852Z,1.20
2022-09-09T04:18:27.018Z,1.67
2022-09-09T04:20:54.192Z,1.40
2022-09-09T04:23:25.153Z,1.30
2022-09-09T04:25:55.939Z,1.60
2022-09-09T04:28:25.242Z,1.50
2022-09-09T04:30:53.412Z,1.40
2022-09-09T04:33:20.671Z,1.50
2022-09-09T04:35:51.202Z,1.30
2022-09-09T04:38:19.638Z,1.30
2022-09-09T04:40:50.822Z,1.73
2022-09-09T04:43:17.528Z,1.73
2022-09-09T04:45:45.199Z,1.40
2022-09-09T04:48:11.990Z,1.43
2022-09-09T04:50:39.426Z,1.40
2022-09-09T04:53:06.759Z,1.83
2022-09-09T04:55:38.639Z,1.53
2022-09-09T04:58:06.913Z,2.03
2022-09-09T05:00:35.015Z,1.40
2022-09-09T05:03:05.655Z,1.97
2022-09-09T05:05:35.222Z,1.97
2022-09-09T05:08:06.918Z,1.50
2022-09-09T05:10:34.796Z,1.70
2022-09-09T05:13:01.617Z,1.53
2022-09-09T05:15:30.535Z,2.03
2022-09-09T05:18:01.632Z,1.70
2022-09-09T05:20:30.673Z,1.67
2022-09-09T05:22:58.000Z,1.70
2022-09-09T05:25:30.309Z,2.60
2022-09-09T05:27:57.504Z,2.40
2022-09-09T05:30:24.235Z,1.93
2022-09-09T05:32:52.114Z,1.67
2022-09-09T05:35:20.240Z,1.80
2022-09-09T05:37:47.134Z,2.00
2022-09-09T05:40:14.625Z,1.90
2022-09-09T05:42:41.918Z,1.90
2022-09-09T05:45:10.186Z,2.10
2022-09-09T05:47:38.389Z,1.80
2022-09-09T05:50:08.661Z,2.10
2022-09-09T05:52:36.075Z,1.93
2022-09-09T05:55:05.592Z,1.67
2022-09-09T05:57:32.421Z,1.60
2022-09-09T05:59:59.164Z,2.17
2022-09-09T06:02:26.036Z,1.63
2022-09-09T06:04:53.790Z,1.83
2022-09-09T06:07:23.790Z,1.53
2022-09-09T06:09:52.435Z,2.03
2022-09-09T06:12:19.220Z,1.80
2022-09-09T06:14:47.208Z,1.70
2022-09-09T06:17:15.362Z,1.73
2022-09-09T06:19:42.102Z,2.10
2022-09-09T06:22:09.994Z,1.80
2022-09-09T06:24:37.458Z,1.73
2022-09-09T06:27:04.568Z,1.93
2022-09-09T06:29:34.801Z,1.90
2022-09-09T06:32:03.400Z,1.83
2022-09-09T06:34:31.294Z,1.70
2022-09-09T06:36:59.362Z,1.50
2022-09-09T06:39:32.935Z,2.43
2022-09-09T06:42:03.451Z,2.10
2022-09-09T06:44:49.143Z,1.53
2022-09-09T06:47:26.144Z,2.10
2022-09-09T06:49:53.782Z,1.80
2022-09-09T06:52:25.104Z,2.27
2022-09-09T06:54:52.189Z,1.70
2022-09-09T06:57:36.395Z,1.70
2022-09-09T07:00:07.363Z,1.60
2022-09-09T07:02:39.922Z,1.63
2022-09-09T07:05:09.193Z,1.80
2022-09-09T07:07:38.337Z,1.77
2022-09-09T07:10:06.528Z,1.80
2022-09-09T07:12:33.785Z,1.50
2022-09-09T07:15:01.770Z,1.97
2022-09-09T07:17:30.143Z,1.60
2022-09-09T07:19:57.838Z,1.53
2022-09-09T07:22:24.583Z,2.10
2022-09-09T07:24:51.368Z,1.37
2022-09-09T07:27:19.066Z,1.57
2022-09-09T07:29:47.584Z,1.77
2022-09-09T07:32:14.609Z,1.83
2022-09-09T07:34:41.292Z,1.90
2022-09-09T07:37:08.090Z,1.90
2022-09-09T07:39:36.213Z,2.30
2022-09-09T07:42:02.964Z,1.70
2022-09-09T07:44:29.804Z,1.33
2022-09-09T07:47:04.580Z,2.00
2022-09-09T07:49:38.667Z,1.50
2022-09-09T07:54:41.742Z,1.77
2022-09-09T07:57:08.792Z,2.00
2022-09-09T07:59:38.044Z,1.87
2022-09-09T08:02:05.577Z,2.23
2022-09-09T08:04:34.650Z,1.70
2022-09-09T08:07:04.078Z,1.70
2022-09-09T08:09:38.037Z,2.17
2022-09-09T08:12:11.796Z,1.80
2022-09-09T08:14:39.155Z,1.90
2022-09-09T08:17:05.935Z,1.60
2022-09-09T08:19:36.972Z,1.77
2022-09-09T08:22:08.816Z,1.77
2022-09-09T08:24:37.272Z,1.73
2022-09-09T08:27:04.250Z,1.70
2022-09-09T08:29:31.087Z,1.93
2022-09-09T08:31:58.891Z,1.30
2022-09-09T08:34:27.967Z,1.60
2022-09-09T08:36:56.611Z,1.57
2022-09-09T08:39:29.819Z,2.07
2022-09-09T08:42:32.313Z,1.83
2022-09-09T08:45:25.883Z,1.67
2022-09-09T08:47:59.227Z,1.37
2022-09-09T08:50:41.437Z,1.47
2022-09-09T08:53:31.318Z,1.97
2022-09-09T08:56:00.420Z,1.77
2022-09-09T08:58:51.104Z,1.30
2022-09-09T09:02:06.559Z,1.80
2022-09-09T09:04:49.999Z,2.43
2022-09-09T09:07:37.067Z,1.47
2022-09-09T09:10:30.517Z,1.80
2022-09-09T09:12:57.353Z,1.93
2022-09-09T09:15:29.455Z,2.33
2022-09-09T09:17:59.151Z,1.70
2022-09-09T09:20:39.840Z,1.87
2022-09-09T09:23:07.821Z,2.10
2022-09-09T09:25:40.945Z,1.93
2022-09-09T09:28:20.474Z,1.90
2022-09-09T09:31:09.522Z,1.63
2022-09-09T09:33:57.060Z,1.87
2022-09-09T09:36:35.826Z,1.70
2022-09-09T09:41:54.250Z,1.40
2022-09-09T09:44:29.743Z,1.80
2022-09-09T09:47:08.721Z,1.70
2022-09-09T09:49:36.201Z,2.00
2022-09-09T09:52:04.207Z,2.00
2022-09-09T09:54:35.015Z,2.00
2022-09-09T09:57:14.250Z,2.33
2022-09-09T09:59:42.578Z,1.57
2022-09-09T10:02:26.702Z,1.83
2022-09-09T10:05:13.853Z,1.90
2022-09-09T10:07:46.915Z,2.17
2022-09-09T10:10:19.243Z,2.20
2022-09-09T10:12:57.803Z,2.23
2022-09-09T10:15:33.172Z,1.70
2022-09-09T10:18:18.228Z,2.00
2022-09-09T10:20:47.884Z,1.97
2022-09-09T10:23:26.596Z,2.10
2022-09-09T10:26:17.728Z,1.50
2022-09-09T10:28:53.986Z,2.00
2022-09-09T10:31:46.993Z,1.60
2022-09-09T10:34:46.085Z,2.13
2022-09-09T10:37:28.408Z,1.90
2022-09-09T10:40:15.129Z,1.60
2022-09-09T10:42:43.583Z,1.90
2022-09-09T10:45:20.323Z,1.80
2022-09-09T10:47:54.266Z,2.00
2022-09-09T10:51:00.077Z,1.60
2022-09-09T10:53:30.254Z,1.90
2022-09-09T10:56:09.789Z,1.70
2022-09-09T10:58:44.146Z,2.13
2022-09-09T11:01:32.777Z,2.27
2022-09-09T11:04:15.079Z,1.83
2022-09-09T11:06:46.142Z,1.90
2022-09-09T11:09:21.317Z,2.10
2022-09-09T11:11:55.748Z,2.03
2022-09-09T11:14:44.640Z,1.90
2022-09-09T11:17:15.187Z,2.30
2022-09-09T11:19:43.850Z,2.17
2022-09-09T11:22:46.061Z,1.93
2022-09-09T11:25:18.985Z,2.00
2022-09-09T11:28:07.709Z,1.97
2022-09-09T11:30:57.368Z,2.00
2022-09-09T11:34:03.093Z,1.60
2022-09-09T11:36:48.483Z,2.00
2022-09-09T11:39:44.022Z,1.77
2022-09-09T11:42:13.669Z,1.80
2022-09-09T11:44:40.767Z,1.70
2022-09-09T11:47:27.461Z,1.90
2022-09-09T11:49:55.130Z,2.20
2022-09-09T11:52:44.399Z,1.50
2022-09-09T11:55:33.907Z,1.50
2022-09-09T11:58:01.861Z,1.57
2022-09-09T12:00:44.850Z,1.37
2022-09-09T12:03:43.929Z,1.37
2022-09-09T12:06:20.847Z,1.40
2022-09-09T12:08:53.911Z,1.40
2022-09-09T12:11:29.045Z,1.40
2022-09-09T12:13:57.505Z,1.40
2022-09-09T12:16:39.574Z,1.00
2022-09-09T12:19:22.063Z,1.30
2022-09-09T12:22:04.433Z,1.50
2022-09-09T12:24:39.551Z,1.43
2022-09-09T12:27:06.190Z,1.60
2022-09-09T12:29:56.084Z,1.33
2022-09-09T12:32:26.766Z,1.60
2022-09-09T12:34:57.601Z,1.30
2022-09-09T12:37:35.578Z,1.40
2022-09-09T12:40:21.580Z,1.10
2022-09-09T12:42:48.388Z,1.00
2022-09-09T12:45:19.626Z,1.47
2022-09-09T12:47:57.699Z,2.13
2022-09-09T12:50:27.152Z,1.40
2022-09-09T12:53:00.343Z,1.20
2022-09-09T12:55:34.374Z,1.70
2022-09-09T12:58:05.584Z,1.77
2022-09-09T13:00:33.263Z,1.30
2022-09-09T13:03:02.616Z,1.50
2022-09-09T13:05:36.502Z,1.27
2022-09-09T13:08:11.513Z,1.50
2022-09-09T13:10:58.726Z,1.37
2022-09-09T13:13:41.773Z,1.10
2022-09-09T13:16:24.163Z,1.10
2022-09-09T13:18:54.022Z,1.50
2022-09-09T13:21:21.044Z,1.40
2022-09-09T13:23:53.406Z,1.10
2022-09-09T13:26:23.725Z,1.20
2022-09-09T13:28:50.758Z,1.00
2022-09-09T13:31:31.503Z,0.93
2022-09-09T13:33:58.571Z,0.67
2022-09-09T13:36:35.439Z,1.17
2022-09-09T13:39:04.556Z,1.80
2022-09-09T13:41:35.065Z,1.20
2022-09-09T13:44:03.174Z,1.10
2022-09-09T13:46:41.374Z,1.50
2022-09-09T13:49:09.747Z,1.13
2022-09-09T13:52:03.053Z,1.87
2022-09-09T13:54:31.784Z,0.70
2022-09-09T13:56:58.490Z,1.40
2022-09-09T13:59:30.741Z,1.10
2022-09-09T14:02:09.387Z,1.20
2022-09-09T14:04:36.095Z,0.90
2022-09-09T14:07:03.578Z,1.00
2022-09-09T14:09:30.263Z,1.30
2022-09-09T14:11:56.929Z,1.20
2022-09-09T14:14:23.690Z,0.90
2022-09-09T14:16:50.452Z,0.90
2022-09-09T14:19:17.616Z,0.97
2022-09-09T14:21:44.259Z,1.40
2022-09-09T14:24:10.968Z,0.90
2022-09-09T14:26:37.815Z,1.00
2022-09-09T14:29:04.638Z,1.00
2022-09-09T14:31:31.372Z,1.00
2022-09-09T14:33:58.726Z,1.07
2022-09-09T14:36:25.664Z,1.07
2022-09-09T14:38:52.978Z,1.00
2022-09-09T14:41:21.098Z,0.80
2022-09-09T14:43:47.920Z,1.07
2022-09-09T14:46:16.741Z,1.10
2022-09-09T14:48:45.051Z,1.00
2022-09-09T14:51:13.993Z,1.00
2022-09-09T14:53:41.406Z,1.20
2022-09-09T14:56:10.402Z,0.97
2022-09-09T14:58:38.925Z,1.17
2022-09-09T15:01:07.818Z,1.17
2022-09-09T15:03:35.455Z,1.10
2022-09-09T15:06:15.549Z,0.90
2022-09-09T15:08:43.811Z,1.30
2022-09-09T15:11:12.544Z,1.17
2022-09-09T15:13:41.391Z,1.10
2022-09-09T15:16:13.960Z,1.00
2022-09-09T15:18:43.731Z,1.10
2022-09-09T15:21:15.735Z,1.20
2022-09-09T15:23:43.046Z,1.23
2022-09-09T15:26:10.194Z,1.20
2022-09-09T15:28:38.985Z,1.10
2022-09-09T15:31:15.537Z,1.10
2022-09-09T15:33:42.546Z,1.50
2022-09-09T15:36:22.960Z,0.90
2022-09-09T15:38:50.828Z,1.10
2022-09-09T15:41:18.779Z,1.00
2022-09-09T15:43:51.125Z,1.13
2022-09-09T15:46:17.808Z,1.10
2022-09-09T15:48:50.031Z,1.10
2022-09-09T15:51:41.159Z,1.13
2022-09-09T15:54:06.926Z,1.27
2022-09-09T15:56:34.354Z,1.20
2022-09-09T15:59:02.371Z,1.17
2022-09-09T16:01:29.823Z,1.23
2022-09-09T16:03:56.630Z,1.20
2022-09-09T16:06:25.566Z,1.07
2022-09-09T16:08:54.170Z,1.10
2022-09-09T16:11:25.535Z,1.37
2022-09-09T16:13:53.900Z,1.17
2022-09-09T16:16:23.099Z,1.03
2022-09-09T16:18:52.915Z,1.20
2022-09-09T16:21:27.092Z,0.93
2022-09-09T16:23:57.056Z,1.23
2022-09-09T16:26:24.327Z,1.00
2022-09-09T16:28:55.223Z,1.07
2022-09-09T16:31:24.279Z,1.00
2022-09-09T16:36:44.207Z,1.00
2022-09-09T16:39:13.277Z,1.10
2022-09-09T16:41:40.972Z,1.30
2022-09-09T16:44:09.686Z,1.23
2022-09-09T16:46:39.767Z,1.20
2022-09-09T16:49:08.355Z,1.20
2022-09-09T16:51:38.128Z,1.30
2022-09-09T16:54:07.962Z,1.63
2022-09-09T16:56:42.209Z,1.37
2022-09-09T16:59:11.907Z,1.73
2022-09-09T17:01:41.627Z,1.50
2022-09-09T17:04:14.859Z,1.50
2022-09-09T17:06:42.471Z,0.97
2022-09-09T17:09:10.833Z,1.47
2022-09-09T17:11:39.422Z,1.40
2022-09-09T17:14:08.155Z,1.37
2022-09-09T17:16:37.867Z,1.20
2022-09-09T17:19:05.332Z,1.10
2022-09-09T17:21:33.082Z,1.17
2022-09-09T17:24:00.015Z,1.20
2022-09-09T17:26:29.483Z,1.37
2022-09-09T17:28:59.810Z,1.10
2022-09-09T17:31:27.416Z,0.90
2022-09-09T17:33:54.805Z,0.70
2022-09-09T17:36:33.337Z,1.10
2022-09-09T17:39:01.192Z,0.80
2022-09-09T17:41:39.033Z,0.70
2022-09-09T17:46:37.664Z,1.03
2022-09-09T17:49:07.529Z,0.90
2022-09-09T17:51:34.956Z,1.20
2022-09-09T17:54:21.167Z,1.30
2022-09-09T17:56:49.306Z,1.40
2022-09-09T17:59:17.572Z,1.20
2022-09-09T18:01:46.905Z,1.10
2022-09-09T18:04:15.686Z,2.57
2022-09-09T18:06:45.479Z,1.30
2022-09-09T18:09:15.300Z,1.20
2022-09-09T18:11:45.444Z,1.20
2022-09-09T18:14:15.742Z,1.63
2022-09-09T18:16:42.510Z,1.30
2022-09-09T18:19:13.980Z,1.20
2022-09-09T18:21:42.178Z,1.40
2022-09-09T18:24:10.624Z,1.50
2022-09-09T18:26:39.499Z,1.40
2022-09-09T18:29:08.489Z,1.20
2022-09-09T18:31:37.814Z,1.50
2022-09-09T18:34:07.390Z,1.60
2022-09-09T18:36:42.433Z,1.23
2022-09-09T18:39:09.577Z,1.40
2022-09-09T18:41:38.929Z,1.40
2022-09-09T18:44:09.511Z,1.37
2022-09-09T18:46:37.520Z,1.83
2022-09-09T18:49:05.711Z,1.40
2022-09-09T18:51:35.286Z,1.40
2022-09-09T18:54:09.480Z,1.20
2022-09-09T18:56:39.905Z,1.50
2022-09-09T18:59:08.593Z,1.20
2022-09-09T19:01:38.421Z,1.50
2022-09-09T19:04:06.800Z,1.30
2022-09-09T19:06:37.311Z,1.50
2022-09-09T19:09:05.026Z,1.57
2022-09-09T19:11:33.287Z,1.40
2022-09-09T19:14:03.064Z,1.60
2022-09-09T19:16:33.917Z,1.87
2022-09-09T19:19:03.123Z,1.67
2022-09-09T19:21:38.267Z,1.70
2022-09-09T19:24:21.468Z,1.60
2022-09-09T19:26:52.600Z,1.60
2022-09-09T19:29:22.127Z,1.63
2022-09-09T19:32:36.514Z,1.57
2022-09-09T19:34:44.160Z,1.70
2022-09-09T19:37:14.089Z,1.80
2022-09-09T19:39:43.359Z,1.60
2022-09-09T19:42:10.535Z,1.43
2022-09-09T19:44:37.573Z,1.80
2022-09-09T19:47:05.003Z,1.40
2022-09-09T19:49:32.247Z,1.50
2022-09-09T19:51:59.744Z,1.80
2022-09-09T19:54:26.747Z,1.50
2022-09-09T19:56:53.599Z,1.60
2022-09-09T19:59:21.000Z,2.23
2022-09-09T20:01:47.886Z,1.60
2022-09-09T20:04:15.289Z,1.70
2022-09-09T20:06:44.120Z,1.57
2022-09-09T20:09:14.809Z,1.40
2022-09-09T20:11:43.158Z,2.03
2022-09-09T20:14:10.508Z,1.77
2022-09-09T20:16:37.613Z,2.10
2022-09-09T20:19:06.972Z,1.20
2022-09-09T20:21:36.031Z,1.47
2022-09-09T20:24:06.033Z,1.30
2022-09-09T20:26:37.623Z,0.90
2022-09-09T20:29:07.795Z,0.97
2022-09-09T20:31:36.536Z,1.40
2022-09-09T20:34:04.530Z,1.00
2022-09-09T20:36:33.731Z,1.10
2022-09-09T20:39:02.468Z,1.10
2022-09-09T20:41:31.814Z,1.20
2022-09-09T20:44:03.801Z,1.13
2022-09-09T20:46:33.940Z,0.87
2022-09-09T20:49:03.197Z,1.60
2022-09-09T20:51:33.041Z,1.17
2022-09-09T20:54:08.718Z,1.20
2022-09-09T20:56:39.394Z,1.20
2022-09-09T20:59:07.976Z,1.17
2022-09-09T21:01:36.705Z,1.27
2022-09-09T21:04:03.722Z,1.70
2022-09-09T21:06:30.568Z,1.80
2022-09-09T21:08:57.842Z,1.70
2022-09-09T21:11:24.781Z,1.37
2022-09-09T21:13:51.470Z,1.63
2022-09-09T21:16:22.006Z,1.50
2022-09-09T21:18:49.690Z,1.50
2022-09-09T21:21:19.288Z,1.87
2022-09-09T21:23:46.063Z,1.70
2022-09-09T21:26:13.058Z,2.20
2022-09-09T21:28:40.230Z,1.80
2022-09-09T21:31:07.317Z,1.70
2022-09-09T21:33:34.625Z,1.93
2022-09-09T21:36:06.328Z,2.00
2022-09-09T21:38:33.653Z,2.13
2022-09-09T21:41:05.278Z,2.00
2022-09-09T21:43:32.628Z,2.00
2022-09-09T21:45:59.594Z,1.60
2022-09-09T21:48:26.487Z,2.03
2022-09-09T21:50:54.416Z,2.00
2022-09-09T21:53:21.275Z,1.90
2022-09-09T21:55:49.058Z,2.50
2022-09-09T21:58:16.827Z,1.80
2022-09-09T22:00:45.788Z,1.80
2022-09-09T22:03:17.915Z,2.17
2022-09-09T22:05:51.918Z,2.20
2022-09-09T22:08:20.946Z,1.83
2022-09-09T22:10:47.902Z,1.60
2022-09-09T22:13:16.012Z,2.00
2022-09-09T22:15:46.874Z,2.07
2022-09-09T22:18:15.974Z,2.07
2022-09-09T22:20:44.158Z,1.90
2022-09-09T22:23:12.496Z,1.80
2022-09-09T22:25:39.811Z,1.97
2022-09-09T22:28:09.089Z,2.13
2022-09-09T22:30:35.943Z,2.20
2022-09-09T22:33:02.766Z,2.00
2022-09-09T22:35:29.683Z,2.00
2022-09-09T22:37:57.337Z,2.53
2022-09-09T22:40:24.290Z,2.13
2022-09-09T22:42:52.996Z,1.83
2022-09-09T22:45:21.611Z,1.97
2022-09-09T22:47:48.496Z,2.10
2022-09-09T22:50:15.317Z,2.10
2022-09-09T22:52:42.457Z,2.07
2022-09-09T22:55:09.483Z,1.90
2022-09-09T22:57:37.362Z,2.43
2022-09-09T23:00:09.244Z,2.30
2022-09-09T23:02:40.949Z,2.63
2022-09-09T23:05:08.842Z,2.40
2022-09-09T23:07:36.756Z,2.30
2022-09-09T23:10:07.170Z,2.17
2022-09-09T23:12:34.201Z,2.10
2022-09-09T23:15:01.077Z,2.30
2022-09-09T23:17:28.036Z,2.27
2022-09-09T23:19:56.716Z,2.50
2022-09-09T23:22:24.506Z,2.00
2022-09-09T23:24:52.789Z,2.17
2022-09-09T23:27:21.483Z,2.10
2022-09-09T23:29:49.106Z,2.30
2022-09-09T23:32:15.955Z,2.30
2022-09-09T23:34:42.777Z,2.13
2022-09-09T23:37:11.150Z,1.93
2022-09-09T23:39:40.338Z,2.40
2022-09-09T23:42:08.163Z,2.40
2022-09-09T23:44:36.588Z,2.77
2022-09-09T23:47:04.214Z,2.97
2022-09-09T23:49:31.449Z,2.97
2022-09-09T23:51:58.146Z,2.33
2022-09-09T23:54:25.109Z,2.63
2022-09-09T23:56:51.991Z,2.80
2022-09-09T23:59:18.854Z,2.97
